createdAt,value
2019-05-25T00:01:27.227Z,56.5
2019-05-25T00:11:27.010Z,65.0
2019-05-25T00:21:27.183Z,58.3
2019-05-25T00:31:27.875Z,60.7
2019-05-25T00:41:25.948Z,57.2
2019-05-25T00:51:26.646Z,62.5
2019-05-25T01:01:28.044Z,56.1
2019-05-25T01:11:27.325Z,49.5
2019-05-25T01:21:28.226Z,50.2
2019-05-25T01:31:25.934Z,47.7
2019-05-25T01:41:26.624Z,52.1
2019-05-25T01:51:27.832Z,55.8
2019-05-25T02:01:27.195Z,53.9
2019-05-25T02:11:28.173Z,55.4
2019-05-25T02:21:27.160Z,54.0
2019-05-25T02:31:26.828Z,49.4
2019-05-25T02:41:26.614Z,52.5
2019-05-25T02:51:27.353Z,48.8
2019-05-25T03:01:26.968Z,52.6
2019-05-25T03:11:26.981Z,51.5
2019-05-25T03:21:27.701Z,69.9
2019-05-25T03:31:27.366Z,54.5
2019-05-25T03:41:27.216Z,38.2
2019-05-25T03:51:27.243Z,45.6
2019-05-25T04:01:29.133Z,40.7
2019-05-25T04:11:27.117Z,39.2
2019-05-25T04:21:27.302Z,45.9
2019-05-25T04:31:26.695Z,44.8
2019-05-25T04:41:28.334Z,35.2
2019-05-25T04:51:26.887Z,33.7
2019-05-25T05:01:27.953Z,30.6
2019-05-25T05:11:26.601Z,35.8
2019-05-25T05:21:30.717Z,35.2
2019-05-25T05:31:26.428Z,35.4
2019-05-25T05:41:29.295Z,35.0
2019-05-25T05:51:27.452Z,30.6
2019-05-25T06:01:26.943Z,32.1
2019-05-25T06:11:26.913Z,27.2
2019-05-25T06:21:28.992Z,28.9
2019-05-25T06:31:26.578Z,28.8
2019-05-25T06:41:28.354Z,30.7
2019-05-25T06:51:27.537Z,29.2
2019-05-25T07:01:26.829Z,27.0
2019-05-25T07:11:32.174Z,24.0
2019-05-25T07:21:26.429Z,23.4
2019-05-25T07:31:27.090Z,24.1
2019-05-25T07:41:26.821Z,20.9
2019-05-25T07:51:26.630Z,21.6
2019-05-25T08:01:26.803Z,20.6
2019-05-25T08:11:32.016Z,15.4
2019-05-25T08:21:25.826Z,12.2
2019-05-25T08:31:28.811Z,12.4
2019-05-25T08:41:26.571Z,12.5
2019-05-25T08:51:26.568Z,10.4
2019-05-25T09:01:27.538Z,10.6
2019-05-25T09:11:26.136Z,7.7
2019-05-25T09:21:26.148Z,14.6
2019-05-25T09:31:25.866Z,6.5
2019-05-25T09:41:27.131Z,7.4
2019-05-25T09:51:28.017Z,8.6
2019-05-25T10:01:26.461Z,7.5
2019-05-25T10:11:26.406Z,5.9
2019-05-25T10:21:26.026Z,5.4
2019-05-25T10:31:25.770Z,5.9
2019-05-25T10:41:26.620Z,5.6
2019-05-25T10:51:26.746Z,5.6
2019-05-25T11:01:26.624Z,5.9
2019-05-25T11:11:25.785Z,6.5
2019-05-25T11:21:25.942Z,8.3
2019-05-25T11:31:32.309Z,11.8
2019-05-25T11:41:25.661Z,6.3
2019-05-25T11:51:34.097Z,5.2
2019-05-25T12:01:26.520Z,5.9
2019-05-25T12:11:26.187Z,6.5
2019-05-25T12:21:26.654Z,6.1
2019-05-25T12:31:26.495Z,6.5
2019-05-25T12:41:26.290Z,5.6
2019-05-25T12:51:26.273Z,8.5
2019-05-25T13:01:27.908Z,4.9
2019-05-25T13:11:27.173Z,7.1
2019-05-25T13:21:26.671Z,4.6
2019-05-25T13:31:25.800Z,5.2
2019-05-25T13:41:25.869Z,5.1
2019-05-25T13:51:25.967Z,5.5
2019-05-25T14:01:29.207Z,6.2
2019-05-25T14:11:26.636Z,3.8
2019-05-25T14:21:26.663Z,5.9
2019-05-25T14:31:25.929Z,5.6
2019-05-25T14:41:26.162Z,6.0
2019-05-25T14:51:27.338Z,5.8
2019-05-25T15:01:26.680Z,5.7
2019-05-25T15:11:29.333Z,6.3
2019-05-25T15:21:28.169Z,7.4
2019-05-25T15:31:26.077Z,5.7
2019-05-25T15:41:27.180Z,6.5
2019-05-25T15:51:26.806Z,4.9
2019-05-25T16:01:25.486Z,7.8
2019-05-25T16:11:26.178Z,6.7
2019-05-25T16:21:26.521Z,6.1
2019-05-25T16:31:27.974Z,6.0
2019-05-25T16:41:26.436Z,10.1
2019-05-25T16:51:26.201Z,7.0
2019-05-25T17:01:26.480Z,8.3
2019-05-25T17:11:26.223Z,6.6
2019-05-25T17:21:26.331Z,6.2
2019-05-25T17:31:26.458Z,7.7
2019-05-25T17:41:26.171Z,6.1
2019-05-25T17:51:26.022Z,8.0
2019-05-25T18:01:26.367Z,6.4
2019-05-25T18:11:26.652Z,6.8
2019-05-25T18:21:26.127Z,10.9
2019-05-25T18:31:27.248Z,17.5
2019-05-25T18:41:27.104Z,10.1
2019-05-25T18:51:25.983Z,14.3
2019-05-25T19:01:27.685Z,12.4
2019-05-25T19:11:26.448Z,14.2
2019-05-25T19:21:29.000Z,12.1
2019-05-25T19:31:27.229Z,15.3
2019-05-25T19:41:25.843Z,11.1
2019-05-25T19:51:27.384Z,12.2
2019-05-25T20:01:27.064Z,12.4
2019-05-25T20:11:26.650Z,14.5
2019-05-25T20:21:26.463Z,18.9
2019-05-25T20:31:26.625Z,12.9
2019-05-25T20:41:27.165Z,19.7
2019-05-25T20:51:26.764Z,17.0
2019-05-25T21:01:26.134Z,18.0
2019-05-25T21:11:25.952Z,17.4
2019-05-25T21:21:31.340Z,23.8
2019-05-25T21:31:26.528Z,22.3
2019-05-25T21:41:27.105Z,22.0
2019-05-25T21:51:26.054Z,24.3
2019-05-25T22:01:26.733Z,23.9
2019-05-25T22:11:28.091Z,20.4
2019-05-25T22:21:27.187Z,25.0
2019-05-25T22:31:26.830Z,29.0
2019-05-25T22:41:26.800Z,22.8
2019-05-25T22:51:28.240Z,18.9
2019-05-25T23:01:36.136Z,22.5
2019-05-25T23:11:26.212Z,27.2
2019-05-25T23:21:28.972Z,27.3
2019-05-25T23:31:26.620Z,32.2
2019-05-25T23:41:27.489Z,24.8
2019-05-25T23:51:27.504Z,30.0
